Time;durP1;ratioP1;P1;durP2;ratioP2;P2;SDS_P1;SDS_P2;PMS_P1;PMS_P2;Temp;Humidity;BMP_temperature;BMP_pressure;BME280_temperature;BME280_humidity;BME280_pressure;Samples;Min_cycle;Max_cycle;Signal;HPM_P1;HPM_P2
2023/12/01 00:01:43;;;;;;;52.33;20.83;;;;;;;-145.18;100.00;46703.38;5032505;28;20036;-69
2023/12/01 00:04:09;;;;;;;57.10;23.43;;;;;;;-145.18;100.00;46703.38;5032180;28;20116;-70
2023/12/01 00:06:34;;;;;;;58.30;25.10;;;;;;;-145.18;100.00;46699.47;5029125;28;20030;-69
2023/12/01 00:09:00;;;;;;;58.70;23.83;;;;;;;-145.18;100.00;46695.56;5024312;28;20502;-69
2023/12/01 00:11:25;;;;;;;60.67;23.50;;;;;;;-145.18;100.00;46683.84;5026610;28;20029;-69
2023/12/01 00:13:51;;;;;;;54.40;23.03;;;;;;;-145.18;100.00;46697.50;5034097;28;20029;-69
2023/12/01 00:16:16;;;;;;;61.47;22.27;;;;;;;-145.18;100.00;46701.41;5033608;28;20076;-69
2023/12/01 00:18:41;;;;;;;56.53;23.20;;;;;;;-145.18;100.00;46703.38;5032535;28;20064;-69
2023/12/01 00:21:07;;;;;;;56.67;23.80;;;;;;;-145.18;100.00;46697.50;5032497;28;20065;-69
2023/12/01 00:23:32;;;;;;;54.83;22.27;;;;;;;-145.18;100.00;46701.41;5033772;28;20025;-69
2023/12/01 00:25:57;;;;;;;55.67;23.13;;;;;;;-145.18;100.00;46691.66;5022769;28;20038;-69
2023/12/01 00:28:24;;;;;;;59.97;22.60;;;;;;;-145.18;100.00;46703.38;5030870;28;20037;-69
2023/12/01 00:30:49;;;;;;;62.92;24.35;;;;;;;-145.18;100.00;46697.50;5029561;28;20037;-69
2023/12/01 00:33:15;;;;;;;58.97;21.43;;;;;;;-145.18;100.00;46701.41;5027059;28;20076;-69
2023/12/01 00:35:40;;;;;;;60.70;23.27;;;;;;;-145.18;100.00;46689.69;5062336;28;20084;-69
2023/12/01 00:38:06;;;;;;;60.27;22.30;;;;;;;-145.18;100.00;46705.31;5029516;28;20105;-69
2023/12/01 00:40:31;;;;;;;59.70;22.67;;;;;;;-145.18;100.00;46703.38;5064335;28;20120;-69
2023/12/01 00:42:57;;;;;;;55.77;21.57;;;;;;;-145.18;100.00;46703.38;5024855;28;20067;-68
2023/12/01 00:45:22;;;;;;;54.03;20.40;;;;;;;-145.18;100.00;46701.41;5027717;28;20118;-68
2023/12/01 00:47:47;;;;;;;47.47;20.10;;;;;;;-145.18;100.00;46695.56;5024802;28;20164;-69
2023/12/01 00:50:13;;;;;;;55.70;21.07;;;;;;;-145.18;100.00;46703.38;5029632;28;20548;-69
2023/12/01 00:52:38;;;;;;;53.70;21.37;;;;;;;-145.18;100.00;46703.38;5026097;28;20029;-69
2023/12/01 00:55:04;;;;;;;54.13;20.03;;;;;;;-145.18;100.00;46695.56;5023226;28;20135;-69
2023/12/01 00:57:29;;;;;;;70.67;22.37;;;;;;;-145.18;100.00;46693.59;4999938;28;20030;-68
2023/12/01 00:59:55;;;;;;;56.53;21.17;;;;;;;-145.18;100.00;46699.47;5022928;28;20072;-69
2023/12/01 01:02:20;;;;;;;58.10;21.03;;;;;;;-145.18;100.00;46693.59;5026916;28;20060;-68
2023/12/01 01:04:45;;;;;;;62.43;23.03;;;;;;;-145.18;100.00;46695.56;5032387;28;20087;-68
2023/12/01 01:07:12;;;;;;;60.23;21.37;;;;;;;-145.18;100.00;46701.41;5020821;28;20476;-69
2023/12/01 01:09:37;;;;;;;68.90;23.50;;;;;;;-145.18;100.00;46689.69;5031301;28;20104;-69
2023/12/01 01:12:03;;;;;;;59.13;19.83;;;;;;;-145.18;100.00;46699.47;5031743;28;20477;-69
2023/12/01 01:14:28;;;;;;;54.73;18.93;;;;;;;-145.18;100.00;46703.38;5033113;28;20028;-69
2023/12/01 01:16:54;;;;;;;55.27;18.87;;;;;;;-145.18;100.00;46705.31;5045914;28;20048;-68
2023/12/01 01:19:19;;;;;;;51.13;18.53;;;;;;;-145.18;100.00;46699.47;5030246;28;20029;-69
2023/12/01 01:21:44;;;;;;;57.03;20.27;;;;;;;-145.18;100.00;46693.59;5027705;28;20045;-68
2023/12/01 01:24:10;;;;;;;49.13;18.27;;;;;;;-145.18;100.00;46705.31;5030758;28;20041;-68
2023/12/01 01:26:36;;;;;;;52.67;18.40;;;;;;;-145.18;100.00;46705.31;5031822;28;20072;-67
2023/12/01 01:29:01;;;;;;;59.08;19.20;;;;;;;-145.18;100.00;46705.31;5031128;28;20486;-69
2023/12/01 01:31:27;;;;;;;55.17;18.80;;;;;;;-145.18;100.00;46701.41;5028551;28;20037;-68
2023/12/01 01:33:53;;;;;;;60.07;18.97;;;;;;;-145.18;100.00;46703.38;5020742;28;20033;-68
2023/12/01 01:36:18;;;;;;;57.03;19.07;;;;;;;-145.18;100.00;46693.59;5021675;28;20041;-68
2023/12/01 01:38:44;;;;;;;56.00;19.03;;;;;;;-145.18;100.00;46695.56;5032499;28;20039;-68
2023/12/01 01:41:09;;;;;;;56.67;18.87;;;;;;;-145.18;100.00;46701.41;5030007;28;20434;-68
2023/12/01 01:43:34;;;;;;;65.70;18.87;;;;;;;-145.18;100.00;46699.47;5031114;28;20059;-68
2023/12/01 01:46:06;;;;;;;57.67;18.60;;;;;;;-145.18;100.00;46691.66;5026443;28;20059;-68
2023/12/01 01:48:33;;;;;;;53.05;18.15;;;;;;;-145.18;100.00;46697.50;5028950;28;20029;-69
2023/12/01 01:51:04;;;;;;;57.10;18.02;;;;;;;-145.18;100.00;46703.38;5028564;28;20060;-69
2023/12/01 01:53:30;;;;;;;52.17;17.13;;;;;;;-145.18;100.00;46697.50;5028549;28;20029;-69
2023/12/01 01:55:57;;;;;;;63.72;17.92;;;;;;;-145.18;100.00;46687.75;5020601;28;20484;-68
2023/12/01 01:58:24;;;;;;;58.00;18.52;;;;;;;-145.18;100.00;46701.41;5025024;28;20037;-68
2023/12/01 02:00:50;;;;;;;57.55;17.50;;;;;;;-145.18;100.00;46695.56;5014375;28;20435;-68
2023/12/01 02:03:16;;;;;;;57.17;15.37;;;;;;;-145.18;100.00;46703.38;5017755;28;20025;-68
2023/12/01 02:05:42;;;;;;;53.03;16.13;;;;;;;-145.18;100.00;46703.38;5015419;28;20022;-68
2023/12/01 02:08:24;;;;;;;50.33;16.03;;;;;;;-145.18;100.00;46689.69;5026514;28;20037;-69
2023/12/01 02:10:52;;;;;;;55.47;15.15;;;;;;;-145.18;100.00;46703.38;5030171;28;20014;-68
2023/12/01 02:13:17;;;;;;;50.30;13.70;;;;;;;-145.18;100.00;46695.56;5030596;28;20112;-69
2023/12/01 02:15:43;;;;;;;44.73;14.23;;;;;;;-145.18;100.00;46691.66;5019308;28;20117;-68
2023/12/01 02:18:25;;;;;;;58.53;15.27;;;;;;;-145.18;100.00;46701.41;5031299;28;20036;-68
2023/12/01 02:20:51;;;;;;;52.13;13.88;;;;;;;-145.18;100.00;46701.41;5020303;28;20041;-68
2023/12/01 02:23:17;;;;;;;51.42;13.85;;;;;;;-145.18;100.00;46699.47;5021767;28;20388;-68
2023/12/01 02:25:42;;;;;;;40.50;12.83;;;;;;;-145.18;100.00;46705.31;5017073;28;20037;-68
2023/12/01 02:28:08;;;;;;;45.77;14.33;;;;;;;-145.18;100.00;46695.56;5027639;28;20075;-68
2023/12/01 02:30:33;;;;;;;47.90;14.67;;;;;;;-145.18;100.00;46703.38;5021339;28;20064;-68
2023/12/01 02:32:59;;;;;;;46.50;15.73;;;;;;;-145.18;100.00;46699.47;5025481;28;20404;-68
2023/12/01 02:35:29;;;;;;;51.83;14.40;;;;;;;-145.18;100.00;46701.41;5022301;28;20484;-68
2023/12/01 02:37:59;;;;;;;56.83;15.93;;;;;;;-145.18;100.00;46695.56;5023683;28;20488;-69
2023/12/01 02:40:27;;;;;;;48.63;15.40;;;;;;;-145.18;100.00;46701.41;5014876;28;20554;-68
2023/12/01 02:42:53;;;;;;;53.20;15.05;;;;;;;-145.18;100.00;46695.56;5029703;28;20038;-68
2023/12/01 02:45:20;;;;;;;57.30;16.90;;;;;;;-145.18;100.00;46699.47;5031559;28;20037;-68
2023/12/01 02:47:50;;;;;;;51.00;15.68;;;;;;;-145.18;100.00;46705.31;5013831;28;20033;-68
2023/12/01 02:50:16;;;;;;;51.78;16.05;;;;;;;-145.18;100.00;46695.56;5022967;28;20021;-68
2023/12/01 02:52:42;;;;;;;44.13;14.60;;;;;;;-145.18;100.00;46695.56;5013515;28;20108;-69
2023/12/01 02:55:08;;;;;;;49.30;14.50;;;;;;;-145.18;100.00;46683.84;5013372;28;20114;-69
2023/12/01 02:57:35;;;;;;;47.15;15.13;;;;;;;-145.18;100.00;46689.69;5027300;28;20025;-69
2023/12/01 03:00:05;;;;;;;45.83;14.50;;;;;;;-145.18;100.00;46693.59;5018906;28;20128;-69
2023/12/01 03:02:30;;;;;;;53.83;14.10;;;;;;;-145.18;100.00;46689.69;5023370;28;20048;-69
2023/12/01 03:04:56;;;;;;;51.97;15.07;;;;;;;-145.18;100.00;46705.31;5013735;28;20460;-69
2023/12/01 03:07:21;;;;;;;53.83;16.60;;;;;;;-145.18;100.00;46685.78;5025079;28;20026;-69
2023/12/01 03:09:47;;;;;;;55.00;17.10;;;;;;;-145.18;100.00;46697.50;5025226;28;20435;-68
2023/12/01 03:12:12;;;;;;;60.10;16.37;;;;;;;-145.18;100.00;46695.56;5014176;28;20029;-69
2023/12/01 03:14:37;;;;;;;51.20;16.97;;;;;;;-145.18;100.00;46683.84;5022409;28;20121;-69
2023/12/01 03:17:03;;;;;;;51.90;16.47;;;;;;;-145.18;100.00;46693.59;5015690;28;20403;-68
2023/12/01 03:19:28;;;;;;;51.30;15.97;;;;;;;-145.18;100.00;46697.50;5024736;28;20402;-68
2023/12/01 03:21:53;;;;;;;63.50;19.53;;;;;;;-145.18;100.00;46699.47;5017693;28;20133;-68
2023/12/01 03:24:19;;;;;;;55.63;17.10;;;;;;;-145.18;100.00;46695.56;5018771;28;20037;-69
2023/12/01 03:26:44;;;;;;;52.17;18.70;;;;;;;-145.18;100.00;46685.78;5019019;28;20029;-69
2023/12/01 03:29:10;;;;;;;53.80;16.90;;;;;;;-145.18;100.00;46701.41;5030591;28;20368;-68
2023/12/01 03:31:35;;;;;;;57.40;18.37;;;;;;;-145.18;100.00;46693.59;5028374;28;20054;-69
2023/12/01 03:34:04;;;;;;;66.90;19.60;;;;;;;-145.18;100.00;46679.94;5024531;28;20033;-68
2023/12/01 03:36:29;;;;;;;55.45;17.80;;;;;;;-145.18;100.00;46691.66;5020661;28;20037;-68
2023/12/01 03:38:55;;;;;;;52.30;16.93;;;;;;;-145.18;100.00;46701.41;5021582;28;20034;-68
2023/12/01 03:41:20;;;;;;;59.07;19.33;;;;;;;-145.18;100.00;46687.75;5030012;28;20080;-69
2023/12/01 03:43:45;;;;;;;63.40;18.80;;;;;;;-145.18;100.00;46699.47;5031184;28;20039;-68
2023/12/01 03:46:11;;;;;;;52.70;18.90;;;;;;;-145.18;100.00;46683.84;5031197;28;20541;-68
2023/12/01 03:48:36;;;;;;;58.13;18.47;;;;;;;-145.18;100.00;46691.66;5030794;28;20037;-68
2023/12/01 03:51:02;;;;;;;55.43;17.73;;;;;;;-145.18;100.00;46699.47;5031414;28;20108;-69
2023/12/01 03:53:30;;;;;;;54.63;18.80;;;;;;;-145.18;100.00;46705.31;5031453;28;20100;-69
2023/12/01 03:55:56;;;;;;;53.88;18.65;;;;;;;-145.18;100.00;46697.50;5031828;28;20029;-68
2023/12/01 03:58:24;;;;;;;57.30;18.47;;;;;;;-145.18;100.00;46691.66;5028253;28;20495;-68
2023/12/01 04:00:53;;;;;;;54.10;18.58;;;;;;;-145.18;100.00;46697.50;5021027;28;20169;-68
2023/12/01 04:03:19;;;;;;;57.55;19.15;;;;;;;-145.18;100.00;46701.41;5021065;28;20044;-68
2023/12/01 04:05:46;;;;;;;54.17;18.37;;;;;;;-145.18;100.00;46693.59;5027777;28;20025;-68
2023/12/01 04:08:11;;;;;;;51.65;16.83;;;;;;;-145.18;100.00;46691.66;5030789;28;20029;-69
2023/12/01 04:10:37;;;;;;;60.87;17.50;;;;;;;-145.18;100.00;46681.88;5025305;28;20035;-69
2023/12/01 04:13:07;;;;;;;58.27;17.97;;;;;;;-145.18;100.00;46701.41;5019939;28;20025;-69
2023/12/01 04:15:34;;;;;;;52.53;19.25;;;;;;;-145.18;100.00;46691.66;5025348;28;20514;-68
2023/12/01 04:18:06;;;;;;;51.25;16.95;;;;;;;-145.18;100.00;46703.38;5025562;28;20373;-69
2023/12/01 04:20:35;;;;;;;52.45;17.55;;;;;;;-145.18;100.00;46699.47;5024006;28;20049;-69
2023/12/01 04:23:02;;;;;;;57.65;18.75;;;;;;;-145.18;100.00;46691.66;5025641;28;20034;-69
2023/12/01 04:25:29;;;;;;;59.78;19.48;;;;;;;-145.18;100.00;46691.66;5021715;28;20041;-69
2023/12/01 04:27:56;;;;;;;57.78;18.33;;;;;;;-145.18;100.00;46691.66;5017724;28;20113;-69
2023/12/01 04:30:23;;;;;;;63.72;19.20;;;;;;;-145.18;100.00;46701.41;5020438;28;20035;-69
2023/12/01 04:32:53;;;;;;;59.60;17.83;;;;;;;-145.18;100.00;46689.69;5021852;28;20033;-68
2023/12/01 04:35:22;;;;;;;54.05;17.58;;;;;;;-145.18;100.00;46687.75;5026904;28;20076;-69
2023/12/01 04:37:48;;;;;;;51.35;17.95;;;;;;;-145.18;100.00;46699.47;5026351;28;20045;-68
2023/12/01 04:40:14;;;;;;;59.00;17.73;;;;;;;-145.18;100.00;46687.75;5025710;28;20717;-69
2023/12/01 04:42:44;;;;;;;51.17;17.10;;;;;;;-145.18;100.00;46689.69;5016920;28;20442;-69
2023/12/01 04:45:13;;;;;;;57.08;16.77;;;;;;;-145.18;100.00;46687.75;5025143;28;20044;-69
2023/12/01 04:47:42;;;;;;;47.97;16.20;;;;;;;-145.18;100.00;46695.56;5025267;28;20040;-69
2023/12/01 04:50:13;;;;;;;57.25;16.10;;;;;;;-145.18;100.00;46703.38;5027931;28;20096;-69
2023/12/01 04:52:43;;;;;;;46.03;15.77;;;;;;;-145.18;100.00;46697.50;5018255;28;20452;-69
2023/12/01 04:55:13;;;;;;;52.97;17.02;;;;;;;-145.18;100.00;46699.47;5018176;28;20471;-68
2023/12/01 04:57:40;;;;;;;43.38;14.88;;;;;;;-145.18;100.00;46701.41;5032268;28;20064;-69
2023/12/01 05:00:19;;;;;;;49.47;15.63;;;;;;;-145.18;100.00;46701.41;5032007;28;20553;-69
2023/12/01 05:02:55;;;;;;;47.28;15.20;;;;;;;-145.18;100.00;46703.38;5020740;28;20056;-69
2023/12/01 05:05:22;;;;;;;50.78;16.42;;;;;;;-145.18;100.00;46699.47;5028331;28;20111;-69
2023/12/01 05:07:50;;;;;;;54.92;15.65;;;;;;;-145.18;100.00;46699.47;5032817;28;20217;-70
2023/12/01 05:10:20;;;;;;;60.65;18.02;;;;;;;-145.18;100.00;46703.38;5021596;28;20034;-69
2023/12/01 05:12:50;;;;;;;54.38;16.35;;;;;;;-145.18;100.00;46689.69;5038545;28;20017;-69
2023/12/01 05:15:20;;;;;;;57.92;17.05;;;;;;;-145.18;100.00;46703.38;5036958;28;20037;-69
2023/12/01 05:18:00;;;;;;;48.08;14.80;;;;;;;-145.18;100.00;46699.47;5034149;28;20491;-69
2023/12/01 05:20:27;;;;;;;49.60;15.27;;;;;;;-145.18;100.00;46699.47;5033484;28;20049;-69
2023/12/01 05:22:55;;;;;;;64.65;17.95;;;;;;;-145.18;100.00;46695.56;5040984;28;20033;-71
2023/12/01 05:25:21;;;;;;;62.65;19.42;;;;;;;-145.18;100.00;46703.38;5034384;28;20040;-69
2023/12/01 05:27:47;;;;;;;66.20;18.75;;;;;;;-145.18;100.00;46683.84;5023561;28;20113;-69
2023/12/01 05:30:14;;;;;;;64.10;17.87;;;;;;;-145.18;100.00;46699.47;5026873;28;20026;-68
2023/12/01 05:32:44;;;;;;;66.68;18.50;;;;;;;-145.18;100.00;46709.22;5041967;28;20033;-68
2023/12/01 05:35:10;;;;;;;60.03;18.27;;;;;;;-145.18;100.00;46703.38;5034467;28;20430;-69
2023/12/01 05:37:39;;;;;;;73.40;18.30;;;;;;;-145.18;100.00;46703.38;5034938;28;20499;-68
2023/12/01 05:40:06;;;;;;;71.25;19.60;;;;;;;-145.18;100.00;46691.66;5031297;28;20487;-69
2023/12/01 05:42:32;;;;;;;67.72;19.95;;;;;;;-145.18;100.00;46695.56;5022813;28;20080;-68
2023/12/01 05:44:58;;;;;;;60.72;17.33;;;;;;;-145.18;100.00;46707.28;5030659;28;20462;-69
2023/12/01 05:47:23;;;;;;;62.33;18.33;;;;;;;-145.18;100.00;46693.59;5022029;28;20056;-69
2023/12/01 05:49:50;;;;;;;71.73;19.53;;;;;;;-145.18;100.00;46703.38;5026569;28;20391;-69
2023/12/01 05:52:15;;;;;;;69.35;17.67;;;;;;;-145.18;100.00;46701.41;5050835;28;20099;-68
2023/12/01 05:54:41;;;;;;;72.33;18.30;;;;;;;-145.18;100.00;46707.28;5026256;28;20124;-70
2023/12/01 05:57:06;;;;;;;67.50;18.73;;;;;;;-145.18;100.00;46703.38;5027716;28;20030;-70
2023/12/01 05:59:32;;;;;;;70.30;20.13;;;;;;;-145.18;100.00;46703.38;5063113;28;20030;-70
2023/12/01 06:01:59;;;;;;;72.85;18.73;;;;;;;-145.18;100.00;46703.38;5018198;28;20037;-69
2023/12/01 06:04:25;;;;;;;67.88;17.58;;;;;;;-145.18;100.00;46705.31;5051893;28;20411;-70
2023/12/01 06:06:50;;;;;;;76.68;20.73;;;;;;;-145.18;100.00;46703.38;5028692;28;20032;-70
2023/12/01 06:09:17;;;;;;;63.23;19.23;;;;;;;-145.18;100.00;46709.22;5031912;28;20034;-70
2023/12/01 06:11:46;;;;;;;67.65;18.70;;;;;;;-145.18;100.00;46703.38;5028554;28;20041;-70
2023/12/01 06:14:11;;;;;;;71.47;17.88;;;;;;;-145.18;100.00;46709.22;5026639;28;20041;-70
2023/12/01 06:16:37;;;;;;;64.27;17.50;;;;;;;-145.18;100.00;46705.31;5022612;28;20037;-71
2023/12/01 06:19:02;;;;;;;70.13;19.03;;;;;;;-145.18;100.00;46707.28;5016147;28;20435;-70
2023/12/01 06:21:27;;;;;;;65.00;17.50;;;;;;;-145.18;100.00;46709.22;5017834;28;20058;-70
2023/12/01 06:23:53;;;;;;;63.70;18.20;;;;;;;-145.18;100.00;46705.31;5018814;28;20034;-70
2023/12/01 06:26:18;;;;;;;59.23;18.30;;;;;;;-145.18;100.00;46703.38;5018369;28;20030;-70
2023/12/01 06:28:44;;;;;;;64.03;18.53;;;;;;;-145.18;100.00;46705.31;5025014;28;20056;-70
2023/12/01 06:31:10;;;;;;;64.07;17.63;;;;;;;-145.18;100.00;46707.28;5028868;28;20033;-70
2023/12/01 06:33:35;;;;;;;71.80;18.50;;;;;;;-145.18;100.00;46707.28;5032805;28;20097;-70
2023/12/01 06:36:00;;;;;;;65.60;19.03;;;;;;;-145.18;100.00;46709.22;5028004;28;20084;-70
2023/12/01 06:38:26;;;;;;;71.17;18.47;;;;;;;-145.18;100.00;46709.22;5026415;28;20064;-71
2023/12/01 06:40:51;;;;;;;64.40;17.53;;;;;;;-145.18;100.00;46707.28;5020598;28;20456;-70
2023/12/01 06:43:16;;;;;;;58.30;17.53;;;;;;;-145.18;100.00;46709.22;5022428;28;20026;-71
2023/12/01 06:45:42;;;;;;;61.43;18.40;;;;;;;-145.18;100.00;46709.22;5022762;28;20034;-70
2023/12/01 06:48:07;;;;;;;68.53;19.83;;;;;;;-145.18;100.00;46709.22;5019011;28;20028;-70
2023/12/01 06:50:33;;;;;;;66.07;19.70;;;;;;;-145.18;100.00;46709.22;5027919;28;20029;-70
2023/12/01 06:53:00;;;;;;;67.27;19.00;;;;;;;-145.18;100.00;46711.19;5025392;28;20376;-70
2023/12/01 06:55:25;;;;;;;65.35;19.20;;;;;;;-145.18;100.00;46695.56;5023870;28;20021;-70
2023/12/01 06:57:51;;;;;;;70.37;18.30;;;;;;;-145.18;100.00;46705.31;5054395;28;20095;-70
2023/12/01 07:00:30;;;;;;;66.70;18.80;;;;;;;-145.18;100.00;46707.28;5025380;28;20037;-70
2023/12/01 07:03:01;;;;;;;63.03;17.20;;;;;;;-145.18;100.00;46707.28;5022803;28;20021;-71
2023/12/01 07:05:27;;;;;;;69.70;17.03;;;;;;;-145.18;100.00;46703.38;5021480;28;20304;-70
2023/12/01 07:07:54;;;;;;;67.03;17.10;;;;;;;-145.18;100.00;46707.28;5019712;28;20761;-71
2023/12/01 07:10:21;;;;;;;56.10;17.13;;;;;;;-145.18;100.00;46703.38;5025058;28;20741;-71
2023/12/01 07:12:47;;;;;;;71.10;17.77;;;;;;;-145.18;100.00;46709.22;5014653;28;20258;-71
2023/12/01 07:15:12;;;;;;;69.50;19.50;;;;;;;-145.18;100.00;46705.31;5024753;28;20266;-70
2023/12/01 07:17:38;;;;;;;63.73;19.20;;;;;;;-145.18;100.00;46713.13;5022635;28;20048;-71
2023/12/01 07:20:13;;;;;;;70.65;19.65;;;;;;;-145.18;100.00;46709.22;5031538;28;20065;-70
2023/12/01 07:22:40;;;;;;;65.60;18.25;;;;;;;-145.18;100.00;46711.19;5029613;28;20105;-71
2023/12/01 07:25:10;;;;;;;70.03;17.73;;;;;;;-145.18;100.00;46707.28;5034396;28;20083;-70
2023/12/01 07:27:39;;;;;;;65.37;19.67;;;;;;;-145.18;100.00;46709.22;5024247;28;20306;-71
2023/12/01 07:30:06;;;;;;;56.60;17.83;;;;;;;-145.18;100.00;46711.19;5029286;28;20309;-70
2023/12/01 07:32:31;;;;;;;63.60;18.13;;;;;;;-145.18;100.00;46713.13;5029259;28;20037;-70
2023/12/01 07:34:56;;;;;;;68.33;19.97;;;;;;;-145.18;100.00;46713.13;5034805;28;20266;-71
2023/12/01 07:37:22;;;;;;;71.40;19.00;;;;;;;-145.18;100.00;46713.13;5029689;28;20034;-71
2023/12/01 07:39:47;;;;;;;64.83;19.00;;;;;;;-145.18;100.00;46711.19;5032926;28;20029;-70
2023/12/01 07:42:12;;;;;;;65.57;20.37;;;;;;;-145.18;100.00;46713.13;5030276;28;20061;-71
2023/12/01 07:44:38;;;;;;;77.83;21.83;;;;;;;-145.18;100.00;46711.19;5028545;28;20488;-71
2023/12/01 07:47:07;;;;;;;72.83;21.57;;;;;;;-145.18;100.00;46717.03;5025021;28;20164;-70
2023/12/01 07:49:33;;;;;;;75.13;21.47;;;;;;;-145.18;100.00;46713.13;5033047;28;20025;-70
2023/12/01 07:51:58;;;;;;;74.83;22.90;;;;;;;-145.18;100.00;46711.19;5025480;28;20309;-70
2023/12/01 07:54:23;;;;;;;70.13;20.93;;;;;;;-145.18;100.00;46709.22;5033495;28;20048;-71
2023/12/01 07:56:49;;;;;;;78.33;22.40;;;;;;;-145.18;100.00;46709.22;5028494;28;20037;-71
2023/12/01 07:59:14;;;;;;;78.87;24.13;;;;;;;-145.18;100.00;46711.19;5033931;28;20037;-71
2023/12/01 08:01:41;;;;;;;80.10;25.20;;;;;;;-145.18;100.00;46711.19;5056113;28;20041;-70
2023/12/01 08:04:07;;;;;;;73.90;22.70;;;;;;;-145.18;100.00;46713.13;5066098;28;20044;-71
2023/12/01 08:06:33;;;;;;;80.13;24.50;;;;;;;-145.18;100.00;46707.28;5055425;28;20668;-71
2023/12/01 08:08:58;;;;;;;79.90;22.60;;;;;;;-145.18;100.00;46711.19;5022282;28;20033;-71
2023/12/01 08:11:24;;;;;;;80.70;22.10;;;;;;;-145.18;100.00;46711.19;5029213;28;20028;-71
2023/12/01 08:13:51;;;;;;;72.17;21.40;;;;;;;-145.18;100.00;46707.28;5033392;28;20494;-70
2023/12/01 08:16:17;;;;;;;77.07;22.55;;;;;;;-145.18;100.00;46707.28;5028574;28;20813;-70
2023/12/01 08:18:42;;;;;;;81.43;22.77;;;;;;;-145.18;100.00;46711.19;5031498;28;20048;-70
2023/12/01 08:21:08;;;;;;;84.77;23.40;;;;;;;-145.18;100.00;46709.22;5019664;28;20440;-71
2023/12/01 08:23:34;;;;;;;90.38;24.95;;;;;;;-145.18;100.00;46713.13;5028329;28;20033;-71
2023/12/01 08:25:59;;;;;;;71.17;21.73;;;;;;;-145.18;100.00;46705.31;5027999;28;20030;-71
2023/12/01 08:28:25;;;;;;;77.23;21.67;;;;;;;-145.18;100.00;46711.19;5030429;28;20037;-71
2023/12/01 08:30:50;;;;;;;78.83;21.60;;;;;;;-145.18;100.00;46707.28;5029485;28;20491;-71
2023/12/01 08:33:16;;;;;;;83.13;23.47;;;;;;;-145.18;100.00;46711.19;5027108;28;20029;-71
2023/12/01 08:35:42;;;;;;;74.77;23.60;;;;;;;-145.18;100.00;46707.28;5028694;28;20487;-71
2023/12/01 08:38:09;;;;;;;77.47;21.70;;;;;;;-145.18;100.00;46709.22;5029463;28;20277;-71
2023/12/01 08:40:35;;;;;;;71.40;21.93;;;;;;;-145.18;100.00;46707.28;5026396;28;20568;-70
2023/12/01 08:43:01;;;;;;;79.50;23.23;;;;;;;-145.18;100.00;46709.22;5028368;28;20306;-71
2023/12/01 08:45:27;;;;;;;86.35;22.50;;;;;;;-145.18;100.00;46705.31;5028461;28;20348;-71
2023/12/01 08:47:52;;;;;;;71.77;22.17;;;;;;;-145.18;100.00;46707.28;5027310;28;20056;-70
2023/12/01 08:50:19;;;;;;;75.30;21.27;;;;;;;-145.18;100.00;46711.19;5027860;28;20033;-71
2023/12/01 08:52:45;;;;;;;84.75;23.50;;;;;;;-145.18;100.00;46703.38;5028996;28;20037;-70
2023/12/01 08:55:10;;;;;;;78.53;21.47;;;;;;;-145.18;100.00;46707.28;5029405;28;20057;-70
2023/12/01 08:57:37;;;;;;;85.50;22.43;;;;;;;-145.18;100.00;46703.38;5028189;28;20031;-70
2023/12/01 09:00:03;;;;;;;73.70;20.08;;;;;;;-145.18;100.00;46705.31;5027788;28;20086;-70
2023/12/01 09:02:28;;;;;;;72.13;21.67;;;;;;;-145.18;100.00;46703.38;5028124;28;20030;-70
2023/12/01 09:04:54;;;;;;;75.23;21.97;;;;;;;-145.18;100.00;46705.31;5029065;28;20032;-70
2023/12/01 09:07:20;;;;;;;73.85;20.95;;;;;;;-145.18;100.00;46709.22;5027826;28;20124;-70
2023/12/01 09:09:45;;;;;;;70.47;21.30;;;;;;;-145.18;100.00;46701.41;5027336;28;20124;-70
2023/12/01 09:12:10;;;;;;;73.03;22.70;;;;;;;-145.18;100.00;46703.38;5027606;28;20096;-70
2023/12/01 09:14:36;;;;;;;70.07;19.33;;;;;;;-145.18;100.00;46701.41;5029135;28;20059;-70
2023/12/01 09:17:01;;;;;;;70.17;21.27;;;;;;;-145.18;100.00;46695.56;5026968;28;20037;-71
2023/12/01 09:19:26;;;;;;;75.93;21.30;;;;;;;-145.18;100.00;46701.41;5029044;28;20108;-71
2023/12/01 09:21:52;;;;;;;72.57;20.30;;;;;;;-145.18;100.00;46699.47;5028163;28;20045;-71
2023/12/01 09:24:17;;;;;;;65.90;19.40;;;;;;;-145.18;100.00;46697.50;5027437;28;20029;-71
2023/12/01 09:26:43;;;;;;;68.50;21.17;;;;;;;-145.18;100.00;46697.50;5026772;28;20124;-71
2023/12/01 09:29:08;;;;;;;73.13;23.43;;;;;;;-145.18;100.00;46697.50;5029060;28;20029;-71
2023/12/01 09:31:42;;;;;;;71.17;20.77;;;;;;;-145.18;100.00;46701.41;5028484;28;20034;-72
2023/12/01 09:34:09;;;;;;;62.90;18.65;;;;;;;-145.18;100.00;46701.41;5028601;28;20083;-72
2023/12/01 09:36:34;;;;;;;67.40;20.00;;;;;;;-145.18;100.00;46697.50;5027075;28;20067;-71
2023/12/01 09:39:00;;;;;;;59.20;17.97;;;;;;;-145.18;100.00;46699.47;5028079;28;20271;-71
2023/12/01 09:41:25;;;;;;;75.00;18.90;;;;;;;-145.18;100.00;46701.41;5028897;28;20088;-72
2023/12/01 09:43:51;;;;;;;70.57;19.50;;;;;;;-145.18;100.00;46701.41;5025225;28;20040;-72
2023/12/01 09:46:16;;;;;;;57.47;18.93;;;;;;;-145.18;100.00;46699.47;5028044;28;20107;-72
2023/12/01 09:48:45;;;;;;;63.97;19.63;;;;;;;-145.18;100.00;46703.38;5032837;28;20112;-67
2023/12/01 09:51:11;;;;;;;54.00;16.95;;;;;;;-145.18;100.00;46703.38;5022631;28;20037;-67
2023/12/01 09:53:37;;;;;;;53.60;16.87;;;;;;;-145.18;100.00;46699.47;5024111;28;20557;-68
2023/12/01 09:56:05;;;;;;;57.97;18.23;;;;;;;-145.18;100.00;46703.38;5023515;28;20044;-68
2023/12/01 09:58:32;;;;;;;57.97;17.65;;;;;;;-145.18;100.00;46705.31;5025482;28;20040;-68
2023/12/01 10:00:59;;;;;;;50.70;15.68;;;;;;;-145.18;100.00;46709.22;5018572;28;20032;-69
2023/12/01 10:03:27;;;;;;;54.25;16.30;;;;;;;-145.18;100.00;46707.28;5021967;28;20037;-69
2023/12/01 10:05:56;;;;;;;52.65;14.65;;;;;;;-145.18;100.00;46703.38;5024423;28;20546;-69
2023/12/01 10:08:21;;;;;;;52.97;17.73;;;;;;;-145.18;100.00;46705.31;5024919;28;20033;-70
2023/12/01 10:10:46;;;;;;;49.90;15.33;;;;;;;-145.18;100.00;46705.31;5027534;28;20282;-69
2023/12/01 10:13:12;;;;;;;48.13;15.17;;;;;;;-145.18;100.00;46711.19;5031270;28;20044;-69
2023/12/01 10:15:38;;;;;;;46.80;13.80;;;;;;;-145.18;100.00;46707.28;5029978;28;20037;-70
2023/12/01 10:18:11;;;;;;;44.03;14.43;;;;;;;-145.18;100.00;46709.22;5061611;28;20037;-70
2023/12/01 10:20:37;;;;;;;44.47;14.50;;;;;;;-145.18;100.00;46709.22;5027166;28;20665;-71
2023/12/01 10:23:19;;;;;;;47.63;15.55;;;;;;;-145.18;100.00;46707.28;5015477;28;20034;-71
2023/12/01 10:25:51;;;;;;;49.25;14.30;;;;;;;-145.18;100.00;46711.19;5025824;28;20014;-71
2023/12/01 10:28:20;;;;;;;36.45;13.98;;;;;;;-145.18;100.00;46717.03;5013419;28;20551;-71
2023/12/01 10:30:57;;;;;;;45.78;15.02;;;;;;;-145.18;100.00;46709.22;5034734;28;20459;-71
2023/12/01 10:33:24;;;;;;;47.10;14.38;;;;;;;-145.18;100.00;46711.19;5034984;28;20079;-71
2023/12/01 10:36:09;;;;;;;42.35;14.82;;;;;;;-145.18;100.00;46713.13;5027095;28;20034;-71
2023/12/01 10:38:36;;;;;;;42.05;12.55;;;;;;;-145.18;100.00;46713.13;5036036;28;20056;-71
2023/12/01 10:41:04;;;;;;;40.65;14.48;;;;;;;-145.18;100.00;46711.19;5019825;28;20048;-71
2023/12/01 10:43:30;;;;;;;39.20;13.50;;;;;;;-145.18;100.00;46709.22;5032767;28;20029;-71
2023/12/01 10:46:00;;;;;;;37.47;12.57;;;;;;;-145.18;100.00;46713.13;5037283;28;20497;-71
2023/12/01 10:48:29;;;;;;;41.42;12.75;;;;;;;-145.18;100.00;46711.19;5036479;28;20108;-71
2023/12/01 10:50:54;;;;;;;42.10;13.02;;;;;;;-145.18;100.00;46707.28;5023710;28;20014;-71
2023/12/01 10:53:24;;;;;;;37.63;12.73;;;;;;;-145.18;100.00;46709.22;5034328;28;20120;-72